Canyon, Minnesota
Current Conditions -  °F | °C
As of 10:55 AM on Sunday 21 Dec 2014 (Local Time) from KDLH Reporting Station
Haze Haze  
Wind Chill: 22°   Ceiling: 300
Heat Index: 31°   Visibility: 0.75mi
Dew Point: 28°   Wind: 12mph
Humidity: 89%   Direction: 150°SSE
Pressure: 29.85"   Gusts: NA
Location:  47.04°N, 92.47°W
Report Text: KDLH 211655Z 15010KT 3/4SM R09/4000V4500FT BR OVC003 M01/M02 A2985 RMK AO2 SLP127 I1001 T10061022
Loading
Personal Weather Stations






























Interactive Weather Map New forecast layout! Learn more

10-Day Weather Forecast

Advertisements
Track Severe Weather on mobile